Time;durP1;ratioP1;P1;durP2;ratioP2;P2;SDS_P1;SDS_P2;PMS_P1;PMS_P2;Temp;Humidity;BMP_temperature;BMP_pressure;BME280_temperature;BME280_humidity;BME280_pressure;Samples;Min_cycle;Max_cycle;Signal;HPM_P1;HPM_P2
2023/09/07 00:01:57;;;;;;;4.22;2.60;;;23.80;65.10;;;;;;5054461;28;20048;-85
2023/09/07 00:04:23;;;;;;;2.60;2.30;;;23.80;65.30;;;;;;5049674;28;20086;-84
2023/09/07 00:06:51;;;;;;;5.07;2.80;;;23.70;65.20;;;;;;5041531;28;20060;-85
2023/09/07 00:09:18;;;;;;;3.20;2.90;;;23.70;65.50;;;;;;5052999;28;20021;-85
2023/09/07 00:11:45;;;;;;;3.40;2.70;;;23.60;65.70;;;;;;5054089;28;20025;-84
2023/09/07 00:14:11;;;;;;;4.07;2.53;;;23.60;65.80;;;;;;5051399;28;20024;-84
2023/09/07 00:16:38;;;;;;;3.00;2.38;;;23.60;65.70;;;;;;5047851;28;20032;-85
2023/09/07 00:19:04;;;;;;;2.88;2.47;;;23.50;65.60;;;;;;5052702;28;20048;-85
2023/09/07 00:21:30;;;;;;;4.13;2.55;;;23.60;65.70;;;;;;5047511;28;20025;-84
2023/09/07 00:23:55;;;;;;;4.18;2.60;;;23.50;65.70;;;;;;5050272;28;20028;-85
2023/09/07 00:26:21;;;;;;;3.38;2.60;;;23.50;65.70;;;;;;5052413;28;20029;-85
2023/09/07 00:28:47;;;;;;;4.20;2.80;;;23.50;65.80;;;;;;5049295;28;20028;-85
2023/09/07 00:31:13;;;;;;;5.53;2.70;;;23.50;65.90;;;;;;5050076;28;20482;-85
2023/09/07 00:33:38;;;;;;;3.28;2.53;;;23.50;65.80;;;;;;5057262;28;20033;-84
2023/09/07 00:36:04;;;;;;;3.42;2.45;;;23.50;65.80;;;;;;5050186;28;20078;-85
2023/09/07 00:38:30;;;;;;;4.45;2.70;;;23.50;65.70;;;;;;5053676;28;20021;-85
2023/09/07 00:40:56;;;;;;;3.92;2.60;;;23.50;65.60;;;;;;5053086;28;20025;-85
2023/09/07 00:43:21;;;;;;;5.03;2.65;;;23.50;65.60;;;;;;5053442;28;20442;-85
2023/09/07 00:45:47;;;;;;;3.53;2.80;;;23.50;65.60;;;;;;5053867;28;20033;-85
2023/09/07 00:48:15;;;;;;;5.90;2.65;;;23.40;65.60;;;;;;5052777;28;20021;-86
2023/09/07 00:50:42;;;;;;;4.00;2.50;;;23.40;65.60;;;;;;5052708;28;20025;-86
2023/09/07 00:53:10;;;;;;;7.38;3.20;;;23.40;65.80;;;;;;5049223;28;20364;-85
2023/09/07 00:55:36;;;;;;;3.80;2.95;;;23.40;66.10;;;;;;5056690;28;20094;-86
2023/09/07 00:58:04;;;;;;;3.08;2.50;;;23.40;66.10;;;;;;5051259;28;20468;-85
2023/09/07 01:00:30;;;;;;;2.55;2.35;;;23.40;66.10;;;;;;5057363;28;20038;-85
2023/09/07 01:02:56;;;;;;;4.28;3.00;;;23.30;66.10;;;;;;5051899;28;20487;-85
2023/09/07 01:05:29;;;;;;;5.35;2.60;;;23.30;66.50;;;;;;5051133;28;20071;-85
2023/09/07 01:08:00;;;;;;;3.42;2.80;;;23.20;66.50;;;;;;5053432;28;20609;-85
2023/09/07 01:10:26;;;;;;;3.92;2.90;;;23.20;66.70;;;;;;5051350;28;20021;-85
2023/09/07 01:12:52;;;;;;;4.38;2.90;;;23.20;66.80;;;;;;5051611;28;20521;-86
2023/09/07 01:15:17;;;;;;;4.38;2.97;;;23.10;66.90;;;;;;5051791;28;20029;-85
2023/09/07 01:17:44;;;;;;;4.97;3.60;;;23.10;67.00;;;;;;5050025;28;20040;-86
2023/09/07 01:20:12;;;;;;;5.28;3.88;;;23.10;67.40;;;;;;5051386;28;20043;-86
2023/09/07 01:22:39;;;;;;;5.78;4.10;;;23.00;67.70;;;;;;5049883;28;20029;-85
2023/09/07 01:25:06;;;;;;;4.18;3.38;;;23.00;67.90;;;;;;5053260;28;20086;-85
2023/09/07 01:27:33;;;;;;;5.60;3.35;;;22.90;68.20;;;;;;5051294;28;20085;-85
2023/09/07 01:29:59;;;;;;;4.90;3.70;;;22.80;68.40;;;;;;5054431;28;20032;-85
2023/09/07 01:32:26;;;;;;;6.10;3.35;;;22.80;68.70;;;;;;5051338;28;20017;-86
2023/09/07 01:34:55;;;;;;;4.50;3.20;;;22.80;68.90;;;;;;5051082;28;20078;-85
2023/09/07 01:37:21;;;;;;;4.43;3.20;;;22.70;69.60;;;;;;5053879;28;20033;-85
2023/09/07 01:39:48;;;;;;;4.68;3.53;;;22.70;69.20;;;;;;5052495;28;20036;-85
2023/09/07 01:42:14;;;;;;;5.32;3.30;;;22.60;69.30;;;;;;5056128;28;20399;-85
2023/09/07 01:44:39;;;;;;;4.05;3.40;;;22.60;69.40;;;;;;5051964;28;20021;-85
2023/09/07 01:47:05;;;;;;;4.18;3.22;;;22.70;69.50;;;;;;5053124;28;20401;-85
2023/09/07 01:49:30;;;;;;;4.50;3.30;;;22.60;69.40;;;;;;5052028;28;20074;-85
2023/09/07 01:51:56;;;;;;;4.00;3.50;;;22.60;69.50;;;;;;5059172;28;20021;-85
2023/09/07 01:54:22;;;;;;;4.03;3.00;;;22.60;69.60;;;;;;5044704;28;20471;-85
2023/09/07 01:56:47;;;;;;;4.32;3.13;;;22.60;69.60;;;;;;5051784;28;20051;-85
2023/09/07 01:59:13;;;;;;;4.68;3.53;;;22.50;69.70;;;;;;5051181;28;20028;-86
2023/09/07 02:01:38;;;;;;;3.85;3.28;;;22.50;69.80;;;;;;5057234;28;20384;-86
2023/09/07 02:04:04;;;;;;;6.10;3.45;;;22.50;69.90;;;;;;5049031;28;20045;-84
2023/09/07 02:06:30;;;;;;;5.07;3.17;;;22.50;69.90;;;;;;5060558;28;20013;-85
2023/09/07 02:08:56;;;;;;;5.50;3.60;;;22.50;70.10;;;;;;5049278;28;20039;-85
2023/09/07 02:11:22;;;;;;;5.70;3.80;;;22.40;70.30;;;;;;5057520;28;20497;-86
2023/09/07 02:13:48;;;;;;;4.07;3.22;;;22.30;70.30;;;;;;5049737;28;20025;-86
2023/09/07 02:16:14;;;;;;;4.82;3.65;;;22.40;70.50;;;;;;5054913;28;20044;-85
2023/09/07 02:18:43;;;;;;;4.15;3.50;;;22.30;70.60;;;;;;5050316;28;20029;-86
2023/09/07 02:21:09;;;;;;;4.68;3.30;;;22.20;70.70;;;;;;5054296;28;20091;-85
2023/09/07 02:23:37;;;;;;;3.90;3.35;;;22.20;70.70;;;;;;5048652;28;20149;-85
2023/09/07 02:26:02;;;;;;;4.03;3.50;;;22.20;70.70;;;;;;5050351;28;20025;-86
2023/09/07 02:28:28;;;;;;;5.53;3.65;;;22.20;70.80;;;;;;5048982;28;20506;-85
2023/09/07 02:30:54;;;;;;;5.78;3.60;;;22.20;70.80;;;;;;5052843;28;20035;-86
2023/09/07 02:33:20;;;;;;;4.90;3.58;;;22.10;70.80;;;;;;5049905;28;20060;-85
2023/09/07 02:35:49;;;;;;;4.80;3.88;;;22.10;70.80;;;;;;5052742;28;20502;-85
2023/09/07 02:38:15;;;;;;;4.90;3.58;;;22.10;70.80;;;;;;5049658;28;20104;-85
2023/09/07 02:40:43;;;;;;;4.32;3.70;;;22.10;70.70;;;;;;5047935;28;20067;-86
2023/09/07 02:43:10;;;;;;;7.15;3.53;;;22.10;70.80;;;;;;5052145;28;20039;-85
2023/09/07 02:45:36;;;;;;;6.18;4.15;;;22.10;70.60;;;;;;5052124;28;20507;-85
2023/09/07 02:48:01;;;;;;;5.57;4.20;;;22.10;70.60;;;;;;5065326;28;20224;-86
2023/09/07 02:50:30;;;;;;;6.55;3.72;;;22.10;70.50;;;;;;5050629;28;20021;-85
2023/09/07 02:52:55;;;;;;;6.57;3.90;;;22.00;70.50;;;;;;5048590;28;20483;-85
2023/09/07 02:55:21;;;;;;;6.07;3.22;;;22.00;70.50;;;;;;5050426;28;20079;-85
2023/09/07 02:57:47;;;;;;;5.88;3.35;;;22.00;70.60;;;;;;5050450;28;20460;-86
2023/09/07 03:00:12;;;;;;;4.82;3.80;;;21.90;70.70;;;;;;5050493;28;20051;-85
2023/09/07 03:02:38;;;;;;;4.68;3.85;;;21.90;70.80;;;;;;5056089;28;20060;-85
2023/09/07 03:05:04;;;;;;;5.05;3.80;;;21.90;70.90;;;;;;5056237;28;20111;-86
2023/09/07 03:07:33;;;;;;;4.40;3.42;;;21.90;71.00;;;;;;5057938;28;20032;-85
2023/09/07 03:09:59;;;;;;;5.40;3.15;;;21.80;70.90;;;;;;5050734;28;20017;-85
2023/09/07 03:12:25;;;;;;;5.05;3.75;;;21.80;70.80;;;;;;5054318;28;20109;-85
2023/09/07 03:14:50;;;;;;;5.07;3.80;;;21.80;70.80;;;;;;5049389;28;20025;-85
2023/09/07 03:17:17;;;;;;;5.78;3.80;;;21.80;70.90;;;;;;5062638;28;20029;-85
2023/09/07 03:19:43;;;;;;;4.13;3.60;;;21.80;71.00;;;;;;5048543;28;20017;-84
2023/09/07 03:22:09;;;;;;;4.45;3.80;;;21.70;71.60;;;;;;5049155;28;20044;-87
2023/09/07 03:24:34;;;;;;;4.72;3.70;;;21.70;71.00;;;;;;5051107;28;20158;-85
2023/09/07 03:27:00;;;;;;;5.22;3.67;;;21.70;71.00;;;;;;5049119;28;20028;-86
2023/09/07 03:29:25;;;;;;;4.03;3.30;;;21.70;71.10;;;;;;5041741;28;20036;-85
2023/09/07 03:31:51;;;;;;;5.90;4.15;;;21.70;71.20;;;;;;5051295;28;21487;-86
2023/09/07 03:34:16;;;;;;;5.32;3.78;;;21.60;71.20;;;;;;5057985;28;20027;-85
2023/09/07 03:36:42;;;;;;;6.85;5.05;;;21.60;71.30;;;;;;5055328;28;20029;-86
2023/09/07 03:39:08;;;;;;;4.72;3.72;;;21.60;71.20;;;;;;5052202;28;20438;-85
2023/09/07 03:41:34;;;;;;;4.07;3.60;;;21.50;71.20;;;;;;5048983;28;20515;-86
2023/09/07 03:44:00;;;;;;;4.55;3.40;;;21.50;71.30;;;;;;5050300;28;20029;-86
2023/09/07 03:46:26;;;;;;;4.45;3.72;;;21.50;71.30;;;;;;5053317;28;20091;-87
2023/09/07 03:48:52;;;;;;;4.15;3.65;;;21.50;71.30;;;;;;5047418;28;20399;-86
2023/09/07 03:51:18;;;;;;;5.47;3.88;;;21.40;71.30;;;;;;5049284;28;20021;-85
2023/09/07 03:53:43;;;;;;;4.20;3.72;;;21.40;71.50;;;;;;5051808;28;20365;-85
2023/09/07 03:56:09;;;;;;;4.50;3.90;;;21.40;71.40;;;;;;5048892;28;20368;-85
2023/09/07 03:58:35;;;;;;;3.95;3.55;;;21.40;71.30;;;;;;5052294;28;20368;-85
2023/09/07 04:01:00;;;;;;;4.50;3.45;;;21.40;71.30;;;;;;5049740;28;20033;-86
2023/09/07 04:03:26;;;;;;;5.03;3.60;;;21.40;71.30;;;;;;5048444;28;20033;-86
2023/09/07 04:05:51;;;;;;;4.28;3.25;;;21.40;71.70;;;;;;5048624;28;20032;-85
2023/09/07 04:08:17;;;;;;;4.45;3.70;;;21.40;71.10;;;;;;5054788;28;20033;-85
2023/09/07 04:10:42;;;;;;;6.00;4.03;;;21.40;71.00;;;;;;5049611;28;20028;-85
2023/09/07 04:13:08;;;;;;;4.72;3.90;;;21.40;71.10;;;;;;5055065;28;20100;-85
2023/09/07 04:15:41;;;;;;;3.90;3.05;;;21.30;71.10;;;;;;5051516;28;20073;-86
2023/09/07 04:18:06;;;;;;;5.18;3.72;;;21.30;71.10;;;;;;5056640;28;20024;-85
2023/09/07 04:20:32;;;;;;;4.72;3.42;;;21.30;71.30;;;;;;5049084;28;20024;-86
2023/09/07 04:22:57;;;;;;;4.22;3.67;;;21.30;71.30;;;;;;5049375;28;20458;-85
2023/09/07 04:25:23;;;;;;;4.78;3.50;;;21.20;71.40;;;;;;5049926;28;20024;-85
2023/09/07 04:27:48;;;;;;;5.00;4.20;;;21.20;71.40;;;;;;5055223;28;20056;-84
2023/09/07 04:30:14;;;;;;;5.07;3.75;;;21.10;71.40;;;;;;5049194;28;20025;-85
2023/09/07 04:32:40;;;;;;;5.05;3.90;;;21.20;71.60;;;;;;5049811;28;20025;-85
2023/09/07 04:35:07;;;;;;;5.25;3.78;;;21.10;71.60;;;;;;5048658;28;20025;-85
2023/09/07 04:37:32;;;;;;;5.18;3.78;;;21.10;71.80;;;;;;5052236;28;20094;-85
2023/09/07 04:39:58;;;;;;;9.02;4.50;;;21.10;72.00;;;;;;5047637;28;20033;-86
2023/09/07 04:42:23;;;;;;;4.75;3.53;;;21.00;72.40;;;;;;5048702;28;20390;-85
2023/09/07 04:44:49;;;;;;;5.25;4.05;;;21.00;72.30;;;;;;5050985;28;20067;-86
2023/09/07 04:47:17;;;;;;;5.03;3.80;;;21.00;72.40;;;;;;5052997;28;20450;-86
2023/09/07 04:49:50;;;;;;;4.82;4.10;;;21.00;72.50;;;;;;5048457;28;20061;-86
2023/09/07 04:52:16;;;;;;;5.07;3.83;;;20.90;72.70;;;;;;5055374;28;20032;-84
2023/09/07 04:54:42;;;;;;;5.50;4.35;;;20.80;72.90;;;;;;5053746;28;20029;-86
2023/09/07 04:57:08;;;;;;;6.18;4.53;;;20.80;73.00;;;;;;5044330;28;20108;-85
2023/09/07 04:59:34;;;;;;;5.68;4.50;;;20.80;73.20;;;;;;5047085;28;20112;-86
2023/09/07 05:02:01;;;;;;;4.57;3.97;;;20.80;73.40;;;;;;5048115;28;20487;-86
2023/09/07 05:04:27;;;;;;;5.75;4.15;;;20.70;73.40;;;;;;5046094;28;20040;-86
2023/09/07 05:06:53;;;;;;;6.47;4.70;;;20.70;73.50;;;;;;5044458;28;20029;-86
2023/09/07 05:09:20;;;;;;;4.57;4.15;;;20.70;73.50;;;;;;5048099;28;20017;-86
2023/09/07 05:11:45;;;;;;;5.05;4.20;;;20.70;73.60;;;;;;5046690;28;20478;-87
2023/09/07 05:14:11;;;;;;;6.65;4.85;;;20.70;73.60;;;;;;5056143;28;20108;-87
2023/09/07 05:16:37;;;;;;;5.57;4.32;;;20.70;73.70;;;;;;5049016;28;20021;-87
2023/09/07 05:19:03;;;;;;;5.13;4.05;;;20.70;73.70;;;;;;5053675;28;20024;-87
2023/09/07 05:21:28;;;;;;;5.57;4.30;;;20.70;73.60;;;;;;5052405;28;20028;-84
2023/09/07 05:23:54;;;;;;;4.90;3.83;;;20.60;73.70;;;;;;5051417;28;20032;-85
2023/09/07 05:26:24;;;;;;;5.63;4.38;;;20.60;73.80;;;;;;5052197;28;20029;-85
2023/09/07 05:28:49;;;;;;;5.95;4.00;;;20.60;73.80;;;;;;5055146;28;20031;-86
2023/09/07 05:31:15;;;;;;;5.10;4.20;;;20.60;74.00;;;;;;5047355;28;20021;-85
2023/09/07 05:33:41;;;;;;;5.90;4.30;;;20.50;74.10;;;;;;5050279;28;20033;-86
2023/09/07 05:36:06;;;;;;;7.40;4.47;;;20.60;74.10;;;;;;5052827;28;20017;-87
2023/09/07 05:38:32;;;;;;;5.97;4.75;;;20.60;74.20;;;;;;5051100;28;20056;-87
2023/09/07 05:40:58;;;;;;;6.28;4.57;;;20.50;74.30;;;;;;5045788;28;20059;-88
2023/09/07 05:43:26;;;;;;;4.30;3.90;;;20.60;74.20;;;;;;5053025;28;20127;-89
2023/09/07 05:45:53;;;;;;;5.68;4.30;;;20.60;74.00;;;;;;5052837;28;20017;-85
2023/09/07 05:48:19;;;;;;;4.90;4.13;;;20.70;73.80;;;;;;5049709;28;20029;-86
2023/09/07 05:50:45;;;;;;;5.60;4.55;;;20.70;73.60;;;;;;5051333;28;20216;-86
2023/09/07 05:53:10;;;;;;;6.15;4.10;;;20.80;73.50;;;;;;5051246;28;20017;-86
2023/09/07 05:55:36;;;;;;;5.10;3.90;;;21.20;73.30;;;;;;5050547;28;20086;-90
2023/09/07 05:58:07;;;;;;;5.70;4.10;;;22.40;71.10;;;;;;5048314;28;20017;-85
2023/09/07 06:00:34;;;;;;;4.93;3.67;;;23.70;67.50;;;;;;5050810;28;20028;-84
2023/09/07 06:03:00;;;;;;;5.38;3.60;;;24.90;64.50;;;;;;5050435;28;20045;-85
2023/09/07 06:05:26;;;;;;;4.30;3.35;;;25.90;61.50;;;;;;5044285;28;20184;-86
2023/09/07 06:07:52;;;;;;;3.70;3.30;;;26.70;59.70;;;;;;5050668;28;20336;-85
2023/09/07 06:10:19;;;;;;;4.80;4.13;;;27.50;58.10;;;;;;5047084;28;20119;-86
2023/09/07 06:12:45;;;;;;;4.75;3.92;;;28.00;55.80;;;;;;5049552;28;20059;-86
2023/09/07 06:15:10;;;;;;;5.25;3.30;;;28.40;55.00;;;;;;5046060;28;20020;-86
2023/09/07 06:17:36;;;;;;;6.32;3.95;;;28.90;54.30;;;;;;5046880;28;20035;-86
2023/09/07 06:20:02;;;;;;;5.70;3.30;;;29.50;52.90;;;;;;5048161;28;20024;-85
2023/09/07 06:22:28;;;;;;;4.47;3.20;;;29.60;52.20;;;;;;5048956;28;20120;-85
2023/09/07 06:24:54;;;;;;;4.45;3.35;;;29.90;51.40;;;;;;5046834;28;20104;-85
2023/09/07 06:27:19;;;;;;;4.68;3.58;;;30.60;51.10;;;;;;5055389;28;20229;-85
2023/09/07 06:29:45;;;;;;;5.38;3.10;;;31.00;49.70;;;;;;5047339;28;20017;-85
2023/09/07 06:32:11;;;;;;;3.78;3.30;;;31.30;49.20;;;;;;5043930;28;20107;-85
2023/09/07 06:34:36;;;;;;;3.95;3.10;;;31.40;48.40;;;;;;5049894;28;20059;-85
2023/09/07 06:37:02;;;;;;;4.68;2.88;;;31.80;48.10;;;;;;5047931;28;20036;-85
2023/09/07 06:39:28;;;;;;;3.63;2.70;;;32.30;47.50;;;;;;5050501;28;20031;-85
2023/09/07 06:41:53;;;;;;;5.45;3.53;;;33.00;46.90;;;;;;5049842;28;20037;-85
2023/09/07 06:44:20;;;;;;;5.00;3.50;;;33.00;45.90;;;;;;5044999;28;20625;-86
2023/09/07 06:46:47;;;;;;;3.20;2.90;;;32.60;45.40;;;;;;5054437;28;20472;-86
2023/09/07 06:49:14;;;;;;;5.25;3.38;;;33.10;45.90;;;;;;5050034;28;20024;-85
2023/09/07 06:51:40;;;;;;;4.70;2.70;;;33.10;45.00;;;;;;5050019;28;20024;-84
2023/09/07 06:54:06;;;;;;;3.85;3.20;;;33.30;45.00;;;;;;5044464;28;20106;-84
2023/09/07 06:56:33;;;;;;;4.00;3.03;;;33.70;44.70;;;;;;5050690;28;20024;-83
2023/09/07 06:58:58;;;;;;;3.75;3.17;;;34.20;44.20;;;;;;5048846;28;20082;-85
2023/09/07 07:01:24;;;;;;;3.95;2.72;;;34.20;43.10;;;;;;5040729;28;20029;-83
2023/09/07 07:03:50;;;;;;;4.38;2.50;;;34.30;43.30;;;;;;5050213;28;20045;-85
2023/09/07 07:06:15;;;;;;;5.22;3.00;;;34.80;43.30;;;;;;5050186;28;20499;-85
2023/09/07 07:08:41;;;;;;;5.00;3.10;;;35.20;42.70;;;;;;5048620;28;20617;-85
2023/09/07 07:11:07;;;;;;;4.80;2.70;;;35.10;42.10;;;;;;5045559;28;20110;-85
2023/09/07 07:13:33;;;;;;;4.93;2.90;;;35.20;41.90;;;;;;5046273;28;20028;-84
2023/09/07 07:15:58;;;;;;;2.50;2.30;;;35.40;41.50;;;;;;5040192;28;20032;-83
2023/09/07 07:18:24;;;;;;;3.33;3.00;;;35.90;41.60;;;;;;5045669;28;20083;-83
2023/09/07 07:20:50;;;;;;;3.33;2.75;;;35.60;40.10;;;;;;5045388;28;20025;-85
2023/09/07 07:23:16;;;;;;;2.90;2.60;;;35.40;40.70;;;;;;5043567;28;20033;-85
2023/09/07 07:25:42;;;;;;;4.10;2.80;;;35.70;40.80;;;;;;5049138;28;20091;-86
2023/09/07 07:28:08;;;;;;;3.90;3.10;;;36.00;39.90;;;;;;5049083;28;20094;-86
2023/09/07 07:30:36;;;;;;;3.15;2.50;;;36.20;39.90;;;;;;5047367;28;20029;-88
2023/09/07 07:33:05;;;;;;;3.80;2.40;;;36.50;39.80;;;;;;5054404;28;20010;-86
2023/09/07 07:35:32;;;;;;;2.97;2.50;;;36.60;39.40;;;;;;5041929;28;20112;-84
2023/09/07 07:37:57;;;;;;;3.88;2.67;;;36.50;39.40;;;;;;5049655;28;20058;-84
2023/09/07 07:40:23;;;;;;;3.90;3.03;;;36.00;39.20;;;;;;5047255;28;20382;-83
2023/09/07 07:42:51;;;;;;;3.80;2.95;;;34.40;40.20;;;;;;5044925;28;20483;-85
2023/09/07 07:45:19;;;;;;;3.78;2.80;;;33.10;41.70;;;;;;5042521;28;20567;-84
2023/09/07 07:47:45;;;;;;;2.83;2.20;;;32.30;42.90;;;;;;5041046;28;20096;-85
2023/09/07 07:50:11;;;;;;;3.45;3.00;;;31.80;43.70;;;;;;5044711;28;20044;-86
2023/09/07 07:52:37;;;;;;;3.92;3.17;;;31.20;44.30;;;;;;5057617;28;20052;-86
2023/09/07 07:55:02;;;;;;;2.75;2.50;;;30.70;45.30;;;;;;5044767;28;20025;-86
2023/09/07 07:57:28;;;;;;;5.32;3.15;;;30.30;46.10;;;;;;5048188;28;20078;-86
2023/09/07 07:59:55;;;;;;;2.90;2.38;;;30.00;46.80;;;;;;5042210;28;20051;-85
2023/09/07 08:02:21;;;;;;;3.58;2.78;;;29.70;47.20;;;;;;5046023;28;20087;-85
2023/09/07 08:04:46;;;;;;;3.00;2.70;;;29.40;47.80;;;;;;5045583;28;20025;-86
2023/09/07 08:07:12;;;;;;;4.97;2.60;;;29.10;48.50;;;;;;5050979;28;20029;-84
2023/09/07 08:09:38;;;;;;;4.97;2.78;;;28.70;49.20;;;;;;5048192;28;20375;-84
2023/09/07 08:12:05;;;;;;;4.80;3.05;;;28.50;50.00;;;;;;5049334;28;20032;-84
2023/09/07 08:14:31;;;;;;;3.67;2.97;;;28.30;50.50;;;;;;5052016;28;20017;-85
2023/09/07 08:16:57;;;;;;;3.33;2.70;;;28.20;50.80;;;;;;5052019;28;21248;-87
2023/09/07 08:19:23;;;;;;;4.13;3.00;;;28.00;51.30;;;;;;5049418;28;20393;-85
2023/09/07 08:21:49;;;;;;;4.75;3.42;;;27.90;51.50;;;;;;5046000;28;20041;-85
2023/09/07 08:24:14;;;;;;;3.95;2.95;;;27.60;52.00;;;;;;5044467;28;20036;-83
2023/09/07 08:26:40;;;;;;;3.50;2.85;;;27.50;52.60;;;;;;5046168;28;20491;-83
2023/09/07 08:29:06;;;;;;;4.15;3.10;;;27.40;52.80;;;;;;5044987;28;20116;-84
2023/09/07 08:31:33;;;;;;;3.50;2.83;;;27.30;52.90;;;;;;5046059;28;20059;-85
2023/09/07 08:34:02;;;;;;;3.30;2.80;;;27.30;53.20;;;;;;5046786;28;20064;-84
2023/09/07 08:36:29;;;;;;;4.10;3.00;;;27.30;53.40;;;;;;5048608;28;20013;-84
2023/09/07 08:38:55;;;;;;;4.93;3.38;;;27.20;53.30;;;;;;5047261;28;20480;-88
2023/09/07 08:41:21;;;;;;;4.35;3.20;;;27.20;53.60;;;;;;5045304;28;20029;-88
2023/09/07 08:43:49;;;;;;;4.75;3.22;;;27.20;53.80;;;;;;5048379;28;20123;-89
2023/09/07 08:46:22;;;;;;;5.50;3.60;;;27.20;54.00;;;;;;5049222;28;20025;-88
2023/09/07 08:48:50;;;;;;;3.95;3.50;;;27.20;53.90;;;;;;5048576;28;20025;-85
2023/09/07 08:51:18;;;;;;;4.80;3.80;;;27.00;54.30;;;;;;5046375;28;20502;-84
2023/09/07 08:53:46;;;;;;;5.75;4.45;;;27.00;54.50;;;;;;5052831;28;20064;-86
2023/09/07 08:56:12;;;;;;;4.43;3.70;;;26.90;54.70;;;;;;5059407;28;20021;-87
2023/09/07 08:58:40;;;;;;;4.93;3.25;;;26.90;55.20;;;;;;5052780;28;20021;-84
2023/09/07 09:01:06;;;;;;;4.72;3.45;;;26.90;55.20;;;;;;5040081;28;20220;-88
2023/09/07 09:03:31;;;;;;;5.70;4.00;;;27.00;55.20;;;;;;5036952;28;20028;-87
2023/09/07 09:05:57;;;;;;;3.90;3.45;;;27.00;55.20;;;;;;5048757;28;20021;-87
2023/09/07 09:08:24;;;;;;;6.28;3.85;;;27.00;55.70;;;;;;5054444;28;20025;-90
2023/09/07 09:11:00;;;;;;;4.25;3.50;;;26.90;55.60;;;;;;5046236;28;20387;-86
2023/09/07 09:13:30;;;;;;;3.60;2.83;;;27.00;55.80;;;;;;5054326;28;20120;-91
2023/09/07 09:15:55;;;;;;;4.72;4.10;;;27.00;56.10;;;;;;5060111;28;20478;-90
2023/09/07 09:18:21;;;;;;;5.88;3.85;;;27.00;56.20;;;;;;5048483;28;20112;-87
2023/09/07 09:20:48;;;;;;;6.80;4.28;;;27.10;56.60;;;;;;5065630;28;20270;-86
2023/09/07 09:23:15;;;;;;;5.82;4.00;;;27.10;56.90;;;;;;5057631;28;20037;-86
2023/09/07 09:25:41;;;;;;;4.95;3.85;;;27.10;56.60;;;;;;5057273;28;20109;-87
2023/09/07 09:28:09;;;;;;;6.80;4.50;;;27.10;56.70;;;;;;5053489;28;20039;-85
2023/09/07 09:30:35;;;;;;;5.78;4.20;;;27.10;56.70;;;;;;5052161;28;20064;-86
2023/09/07 09:33:02;;;;;;;5.78;4.07;;;27.10;57.20;;;;;;5048878;28;20049;-87
2023/09/07 09:35:29;;;;;;;5.50;3.75;;;27.10;57.10;;;;;;5051601;28;20016;-87
2023/09/07 09:37:55;;;;;;;5.70;3.58;;;27.20;57.30;;;;;;5047210;28;20059;-86
2023/09/07 09:40:21;;;;;;;5.35;4.10;;;27.30;57.20;;;;;;5048988;28;20080;-86
2023/09/07 09:42:48;;;;;;;6.32;4.28;;;27.40;56.90;;;;;;5050038;28;20040;-87
2023/09/07 09:45:14;;;;;;;5.32;4.82;;;27.40;56.80;;;;;;5052202;28;20021;-87
2023/09/07 09:47:42;;;;;;;7.43;4.20;;;27.30;56.90;;;;;;5053718;28;20071;-87
2023/09/07 09:50:09;;;;;;;5.43;4.10;;;27.40;57.40;;;;;;5048095;28;20025;-87
2023/09/07 09:52:36;;;;;;;5.03;4.20;;;27.40;57.10;;;;;;5051621;28;20040;-87
2023/09/07 09:55:08;;;;;;;4.72;3.78;;;27.50;57.30;;;;;;5053958;28;20029;-87
2023/09/07 09:57:36;;;;;;;;;;;27.60;57.00;;;;;;5052749;28;20029;-87
2023/09/07 10:03:02;;;;;;;6.00;3.70;;;27.70;56.90;;;;;;5046941;28;20063;-87
2023/09/07 10:05:29;;;;;;;5.97;4.40;;;27.80;56.80;;;;;;5049769;28;20086;-87
2023/09/07 10:08:02;;;;;;;4.72;3.95;;;27.80;56.70;;;;;;5051716;28;20033;-86
2023/09/07 10:10:35;;;;;;;7.45;3.35;;;27.80;57.10;;;;;;5048022;28;20025;-86
2023/09/07 10:13:00;;;;;;;6.68;3.75;;;27.80;57.20;;;;;;5051742;28;20029;-86
2023/09/07 10:15:27;;;;;;;5.15;3.60;;;27.90;56.80;;;;;;5049665;28;20433;-86
2023/09/07 10:18:13;;;;;;;4.50;3.70;;;28.00;56.50;;;;;;5049640;28;20528;-87
2023/09/07 10:20:58;;;;;;;5.35;3.40;;;28.00;55.30;;;;;;5043509;28;20033;-86
2023/09/07 10:23:37;;;;;;;4.82;3.80;;;28.00;55.00;;;;;;5050824;28;20040;-87
2023/09/07 10:26:05;;;;;;;4.90;3.50;;;28.00;54.90;;;;;;5052842;28;20017;-87
2023/09/07 10:28:30;;;;;;;5.03;3.55;;;28.10;54.90;;;;;;5045958;28;20426;-86
2023/09/07 10:31:06;;;;;;;4.97;3.28;;;28.20;54.10;;;;;;5055676;28;20075;-86
2023/09/07 10:33:33;;;;;;;4.15;3.13;;;28.30;54.30;;;;;;5059107;28;20021;-87
2023/09/07 10:35:59;;;;;;;4.45;3.45;;;28.40;54.30;;;;;;5052988;28;20033;-87
2023/09/07 10:38:25;;;;;;;4.03;3.00;;;28.50;54.00;;;;;;5054606;28;20523;-86
2023/09/07 10:40:59;;;;;;;4.53;2.97;;;28.60;53.80;;;;;;5057357;28;20029;-87
2023/09/07 10:43:32;;;;;;;3.55;2.97;;;28.60;52.80;;;;;;5055136;28;20081;-87
2023/09/07 10:46:00;;;;;;;4.93;3.50;;;28.60;52.10;;;;;;5049889;28;20456;-86
2023/09/07 10:48:28;;;;;;;4.25;2.80;;;28.60;51.20;;;;;;5048927;28;20479;-86
2023/09/07 10:50:53;;;;;;;4.95;2.97;;;28.60;51.50;;;;;;5049564;28;20450;-86
2023/09/07 10:53:30;;;;;;;3.67;2.92;;;28.70;51.60;;;;;;5050014;28;20013;-86
2023/09/07 10:56:02;;;;;;;5.03;3.35;;;28.70;51.80;;;;;;5047359;28;20048;-86
2023/09/07 10:58:33;;;;;;;4.78;3.03;;;28.70;52.20;;;;;;5054598;28;20025;-87
2023/09/07 11:01:00;;;;;;;4.00;3.30;;;28.80;52.70;;;;;;5048597;28;20027;-86
2023/09/07 11:03:26;;;;;;;3.50;2.78;;;28.80;51.20;;;;;;5067039;28;20474;-85
2023/09/07 11:05:59;;;;;;;4.68;3.40;;;28.90;51.50;;;;;;5051423;28;20112;-86
2023/09/07 11:08:25;;;;;;;3.75;3.28;;;28.90;51.40;;;;;;5050316;28;20134;-86
2023/09/07 11:10:54;;;;;;;7.88;3.17;;;28.90;50.90;;;;;;5046406;28;20021;-86
2023/09/07 11:13:20;;;;;;;4.35;3.05;;;28.90;51.30;;;;;;5050177;28;20107;-85
2023/09/07 11:15:45;;;;;;;5.78;3.50;;;29.00;51.10;;;;;;5047361;28;20033;-85
2023/09/07 11:18:11;;;;;;;3.45;2.97;;;29.00;50.00;;;;;;5047631;28;20513;-86
2023/09/07 11:20:39;;;;;;;4.53;2.90;;;28.90;49.90;;;;;;5050846;28;20032;-86
2023/09/07 11:23:05;;;;;;;4.40;2.75;;;29.00;49.80;;;;;;5047132;28;20056;-86
2023/09/07 11:25:38;;;;;;;5.97;3.03;;;29.10;49.80;;;;;;5057202;28;20028;-85
2023/09/07 11:28:08;;;;;;;4.50;2.80;;;29.20;49.70;;;;;;5050709;28;20096;-85
2023/09/07 11:30:34;;;;;;;4.22;3.03;;;29.40;49.80;;;;;;5042547;28;20021;-86
2023/09/07 11:33:05;;;;;;;2.90;2.60;;;29.40;49.90;;;;;;5052070;28;20029;-86
2023/09/07 11:35:31;;;;;;;3.35;3.05;;;29.50;50.20;;;;;;5048030;28;20017;-86
2023/09/07 11:37:59;;;;;;;5.72;3.08;;;29.50;49.80;;;;;;5053810;28;20632;-86
2023/09/07 11:40:24;;;;;;;4.60;3.30;;;29.50;50.20;;;;;;5049811;28;20035;-86
2023/09/07 11:42:50;;;;;;;4.20;2.97;;;29.50;50.10;;;;;;5049193;28;20339;-86
2023/09/07 11:45:17;;;;;;;4.38;2.80;;;29.50;50.50;;;;;;5047591;28;20025;-86
2023/09/07 11:47:43;;;;;;;3.70;2.65;;;29.60;50.60;;;;;;5045822;28;20089;-85
2023/09/07 11:50:09;;;;;;;3.22;2.50;;;29.80;50.50;;;;;;5051265;28;20035;-86
2023/09/07 11:52:34;;;;;;;4.13;3.00;;;29.90;49.90;;;;;;5056007;28;20110;-86
2023/09/07 11:55:01;;;;;;;3.33;3.00;;;29.90;50.20;;;;;;5048464;28;20029;-84
2023/09/07 11:57:27;;;;;;;5.95;3.35;;;30.00;49.70;;;;;;5045849;28;20025;-84
2023/09/07 11:59:53;;;;;;;5.60;3.08;;;30.00;49.40;;;;;;5047711;28;20483;-84
2023/09/07 12:02:21;;;;;;;4.97;3.30;;;29.90;49.40;;;;;;5055120;28;20029;-85
2023/09/07 12:04:47;;;;;;;4.55;2.80;;;29.90;49.70;;;;;;5047881;28;20037;-85
2023/09/07 12:07:12;;;;;;;3.45;2.88;;;29.90;49.00;;;;;;5046618;28;20029;-84
2023/09/07 12:09:38;;;;;;;4.38;2.90;;;30.00;48.20;;;;;;5047263;28;20024;-85
2023/09/07 12:12:04;;;;;;;2.95;2.65;;;30.10;47.10;;;;;;5047902;28;20024;-85
2023/09/07 12:14:31;;;;;;;3.17;2.60;;;30.20;47.50;;;;;;5046773;28;20055;-84
2023/09/07 12:16:57;;;;;;;5.47;2.85;;;30.20;47.50;;;;;;5047612;28;20040;-83
2023/09/07 12:19:22;;;;;;;2.95;2.65;;;30.20;46.90;;;;;;5048373;28;20029;-84
2023/09/07 12:21:48;;;;;;;4.55;2.80;;;30.30;47.10;;;;;;5045203;28;20124;-83
2023/09/07 12:24:13;;;;;;;3.05;2.53;;;30.30;46.90;;;;;;5048945;28;20166;-83
2023/09/07 12:26:39;;;;;;;4.25;3.00;;;30.40;47.10;;;;;;5054674;28;20025;-83
2023/09/07 12:29:06;;;;;;;3.38;2.78;;;30.40;46.50;;;;;;5048966;28;20033;-82
2023/09/07 12:31:31;;;;;;;3.80;2.95;;;30.50;46.70;;;;;;5056060;28;20059;-85
2023/09/07 12:33:57;;;;;;;4.03;2.70;;;30.50;46.20;;;;;;5054728;28;20048;-85
2023/09/07 12:36:23;;;;;;;3.50;2.97;;;30.50;46.20;;;;;;5051399;28;20379;-85
2023/09/07 12:38:49;;;;;;;4.50;2.83;;;30.60;46.70;;;;;;5057498;28;20045;-85
2023/09/07 12:41:15;;;;;;;3.92;3.10;;;30.70;46.40;;;;;;5051687;28;20031;-86
2023/09/07 12:43:42;;;;;;;3.17;2.50;;;30.60;45.70;;;;;;5051294;28;20036;-85
2023/09/07 12:46:08;;;;;;;3.70;2.80;;;30.70;46.20;;;;;;5053586;28;20521;-85
2023/09/07 12:48:34;;;;;;;3.33;2.90;;;30.90;46.20;;;;;;5058468;28;20025;-85